Zaneta, Iowa
Current Conditions -  °F | °C
As of 3:54 PM on Wednesday 22 Oct 2014 (Local Time) from KALO Reporting Station
Clear Clear  
Wind Chill: 60°   Ceiling: Unl
Heat Index: 60°   Visibility: 10mi
Dew Point: 41°   Wind: 14mph
Humidity: 49%   Direction: 160°SSE
Pressure: 30.17"   Gusts: NA
Location:  42.351°N, 92.4663°W
Report Text: KALO 222054Z 16012KT 10SM CLR 16/05 A3017 RMK AO2 SLP220 T01560050 56020
Loading
Personal Weather Stations






























Interactive Weather Map
Tropical Storm Tracking
New forecast layout! Learn more

10-Day Weather Forecast

Advertisements
Track Severe Weather on mobile